Terminal Aerodrome Forecast
Issued by NWS

Home | Current Version | Previous Version | Text Only | Print | Product List | Glossary On
Versions: 1 2 3 4 5 6 7 8 9 10 11 12 13 14 15 16
000
FTUS43 KSGF 040500
TAFJLN
TAF
KJLN 040520Z 0406/0506 04006KT 5SM BR SKC
     FM040900 06004KT 4SM BR SCT005
      TEMPO 0409/0413 1SM BR SCT005
     FM041400 10006KT P6SM FEW050
     FM050000 13005KT P6SM SKC=

USA.gov is the U.S. government's official web portal to all federal, state and local government web resources and services.